createdAt,value
2023-04-18T00:04:50.056Z,9.40
2023-04-18T00:09:52.552Z,8.10
2023-04-18T00:14:54.462Z,8.70
2023-04-18T00:19:57.958Z,9.10
2023-04-18T00:25:00.549Z,7.90
2023-04-18T00:30:03.027Z,7.40
2023-04-18T00:35:08.175Z,9.30
2023-04-18T00:40:11.004Z,10.00
2023-04-18T00:45:13.335Z,8.40
2023-04-18T00:50:15.754Z,8.40
2023-04-18T00:55:18.582Z,9.60
2023-04-18T01:00:20.798Z,9.10
2023-04-18T01:05:23.163Z,10.60
2023-04-18T01:10:25.965Z,10.90
2023-04-18T01:15:28.263Z,12.00
2023-04-18T01:20:30.981Z,11.00
2023-04-18T01:25:34.219Z,10.80
2023-04-18T01:30:36.443Z,10.60
2023-04-18T01:35:38.327Z,10.10
2023-04-18T01:40:40.371Z,9.50
2023-04-18T01:45:42.591Z,10.20
2023-04-18T01:50:44.687Z,10.30
2023-04-18T01:55:50.286Z,10.50
2023-04-18T02:00:53.370Z,10.20
2023-04-18T02:05:55.655Z,9.80
2023-04-18T02:10:57.524Z,10.10
2023-04-18T02:15:59.435Z,9.10
2023-04-18T02:21:02.054Z,8.60
2023-04-18T02:26:04.052Z,8.80
2023-04-18T02:31:06.963Z,8.20
2023-04-18T02:36:10.492Z,8.50
2023-04-18T02:41:19.131Z,8.60
2023-04-18T02:46:21.075Z,8.90
2023-04-18T02:51:23.765Z,9.10
2023-04-18T02:56:25.806Z,9.70
2023-04-18T03:01:28.852Z,8.50
2023-04-18T03:06:31.503Z,8.80
2023-04-18T03:11:33.602Z,10.10
2023-04-18T03:16:36.045Z,8.20
2023-04-18T03:21:38.131Z,8.80
2023-04-18T03:26:40.051Z,9.00
2023-04-18T03:31:42.100Z,9.20
2023-04-18T03:36:46.549Z,10.00
2023-04-18T03:41:49.752Z,9.80
2023-04-18T03:46:51.712Z,9.80
2023-04-18T03:51:53.971Z,9.10
2023-04-18T03:56:57.305Z,10.20
2023-04-18T04:01:59.401Z,9.10
2023-04-18T04:07:01.626Z,10.50
2023-04-18T04:12:03.835Z,9.30
2023-04-18T04:17:05.864Z,10.40
2023-04-18T04:22:08.670Z,9.10
2023-04-18T04:27:12.182Z,8.30
2023-04-18T04:32:14.756Z,8.70
2023-04-18T04:37:19.608Z,11.50
2023-04-18T04:42:24.785Z,9.60
2023-04-18T04:47:30.207Z,9.10
2023-04-18T04:52:33.086Z,12.10
2023-04-18T04:57:35.723Z,9.20
2023-04-18T05:02:37.851Z,8.40
2023-04-18T05:07:40.081Z,8.50
2023-04-18T05:12:41.990Z,9.30
2023-04-18T05:17:44.355Z,8.70
2023-04-18T05:22:46.488Z,9.60
2023-04-18T05:27:50.136Z,10.80
2023-04-18T05:32:52.267Z,8.40
2023-04-18T05:37:54.185Z,8.90
2023-04-18T05:42:56.205Z,9.00
2023-04-18T05:47:58.233Z,8.40
2023-04-18T05:53:01.023Z,10.00
2023-04-18T05:58:03.840Z,8.20
2023-04-18T06:03:12.896Z,9.20
2023-04-18T06:08:15.892Z,8.90
2023-04-18T06:13:17.940Z,8.60
2023-04-18T06:18:19.924Z,7.30
2023-04-18T06:23:22.054Z,9.80
2023-04-18T06:28:25.252Z,9.20
2023-04-18T06:33:28.272Z,8.00
2023-04-18T06:38:30.635Z,7.00
2023-04-18T06:43:35.367Z,8.30
2023-04-18T06:48:38.667Z,7.40
2023-04-18T06:53:40.726Z,7.30
2023-04-18T06:58:43.405Z,5.40
2023-04-18T07:03:50.391Z,5.50
2023-04-18T07:08:57.330Z,4.90
2023-04-18T07:14:01.933Z,6.30
2023-04-18T07:19:06.276Z,5.40
2023-04-18T07:24:08.414Z,6.00
2023-04-18T07:29:10.582Z,6.80
2023-04-18T07:34:13.993Z,6.70
2023-04-18T07:39:19.394Z,5.40
2023-04-18T07:44:21.524Z,5.60
2023-04-18T07:49:23.973Z,5.00
2023-04-18T07:54:25.979Z,6.70
2023-04-18T07:59:30.175Z,4.50
2023-04-18T08:04:32.580Z,5.80
2023-04-18T08:09:35.013Z,4.90
2023-04-18T08:14:37.428Z,5.70
2023-04-18T08:19:39.386Z,5.30
2023-04-18T08:24:46.412Z,5.40
2023-04-18T08:29:54.050Z,3.60
2023-04-18T08:34:56.047Z,3.70
2023-04-18T08:39:58.045Z,3.90
2023-04-18T08:45:00.359Z,3.70
2023-04-18T08:50:02.875Z,4.80
2023-04-18T08:55:06.286Z,4.10
2023-04-18T09:00:11.294Z,3.80
2023-04-18T09:05:15.917Z,4.00
2023-04-18T09:10:36.241Z,3.70
2023-04-18T09:15:38.334Z,3.30
2023-04-18T09:20:41.884Z,4.00
2023-04-18T09:25:48.805Z,3.00
2023-04-18T09:30:52.106Z,2.70
2023-04-18T09:35:55.215Z,3.40
2023-04-18T09:41:11.392Z,3.90
2023-04-18T09:46:14.688Z,3.80
2023-04-18T09:51:18.019Z,3.80
2023-04-18T09:56:26.481Z,3.80
2023-04-18T10:01:32.352Z,3.20
2023-04-18T10:06:39.140Z,3.00
2023-04-18T10:11:41.563Z,3.10
2023-04-18T10:16:49.930Z,3.00
2023-04-18T10:21:58.105Z,3.30
2023-04-18T10:27:00.306Z,3.30
2023-04-18T10:32:07.715Z,3.70
2023-04-18T10:37:13.026Z,3.80
2023-04-18T10:42:15.038Z,3.50
2023-04-18T10:47:17.109Z,3.70
2023-04-18T10:52:19.127Z,3.50
2023-04-18T10:57:21.354Z,3.70
2023-04-18T11:02:29.612Z,3.30
2023-04-18T11:07:35.819Z,2.70
2023-04-18T11:12:41.390Z,2.60
2023-04-18T11:17:44.539Z,2.20
2023-04-18T11:22:52.006Z,2.60
2023-04-18T11:27:55.555Z,2.90
2023-04-18T11:32:57.698Z,2.70
2023-04-18T11:38:00.642Z,3.60
2023-04-18T11:43:04.991Z,3.50
2023-04-18T11:48:07.157Z,3.10
2023-04-18T11:53:09.176Z,3.10
2023-04-18T11:58:11.092Z,3.70
2023-04-18T12:03:18.408Z,3.10
2023-04-18T12:08:21.026Z,3.60
2023-04-18T12:13:31.295Z,4.00
2023-04-18T12:18:33.822Z,3.80
2023-04-18T12:23:39.907Z,3.40
2023-04-18T12:28:45.870Z,3.60
2023-04-18T12:33:47.890Z,3.40
2023-04-18T12:38:50.975Z,4.40
2023-04-18T12:43:52.905Z,4.10
2023-04-18T12:48:56.792Z,4.60
2023-04-18T12:53:58.912Z,3.70
2023-04-18T12:59:00.883Z,3.60
2023-04-18T13:04:11.626Z,3.60
2023-04-18T13:09:33.942Z,4.00
2023-04-18T13:14:36.320Z,3.40
2023-04-18T13:19:40.156Z,3.00
2023-04-18T13:24:42.110Z,2.80
2023-04-18T13:29:45.312Z,3.70
2023-04-18T13:34:48.182Z,3.40
2023-04-18T13:39:50.425Z,3.70
2023-04-18T13:44:52.395Z,3.50
2023-04-18T13:49:54.332Z,3.70
2023-04-18T13:54:56.269Z,4.10
2023-04-18T13:59:58.354Z,4.40
2023-04-18T14:05:00.664Z,6.00
2023-04-18T14:10:03.033Z,6.40
2023-04-18T14:21:28.712Z,5.40
2023-04-18T14:26:31.165Z,5.80
2023-04-18T14:31:33.162Z,4.70
2023-04-18T14:36:35.558Z,5.50
2023-04-18T14:41:37.568Z,4.60
2023-04-18T14:46:39.551Z,4.50
2023-04-18T14:51:41.577Z,4.70
2023-04-18T14:56:43.519Z,4.60
2023-04-18T15:01:45.558Z,4.60
2023-04-18T15:06:47.606Z,4.50
2023-04-18T15:11:50.314Z,4.50
2023-04-18T15:16:52.378Z,4.50
2023-04-18T15:21:54.798Z,4.40
2023-04-18T15:26:58.001Z,4.80
2023-04-18T15:32:01.231Z,5.60
2023-04-18T15:37:04.338Z,5.10
2023-04-18T15:42:06.887Z,4.40
2023-04-18T15:47:08.821Z,4.40
2023-04-18T15:52:11.037Z,4.90
2023-04-18T15:57:13.069Z,4.20
2023-04-18T16:02:15.133Z,5.00
2023-04-18T16:07:17.335Z,4.70
2023-04-18T16:12:19.498Z,5.20
2023-04-18T16:17:21.519Z,6.00
2023-04-18T16:22:23.544Z,5.90
2023-04-18T16:27:25.950Z,5.40
2023-04-18T16:32:28.089Z,6.30
2023-04-18T16:37:30.081Z,8.40
2023-04-18T16:42:33.461Z,8.30
2023-04-18T16:47:36.128Z,7.50
2023-04-18T16:52:38.137Z,8.40
2023-04-18T16:57:40.380Z,7.30
2023-04-18T17:02:43.835Z,9.40
2023-04-18T17:07:47.424Z,9.20
2023-04-18T17:12:50.173Z,8.00
2023-04-18T17:17:52.225Z,7.70
2023-04-18T17:22:55.024Z,6.50
2023-04-18T17:27:57.576Z,5.10
2023-04-18T17:32:59.633Z,6.20
2023-04-18T17:38:01.770Z,5.20
2023-04-18T17:43:03.777Z,5.90
2023-04-18T17:48:06.109Z,6.30
2023-04-18T17:53:08.062Z,5.20
2023-04-18T17:58:10.048Z,5.40
2023-04-18T18:03:16.632Z,5.40
2023-04-18T18:08:18.674Z,6.20
2023-04-18T18:13:20.689Z,5.00
2023-04-18T18:18:23.019Z,5.60
2023-04-18T18:23:25.134Z,4.90
2023-04-18T18:28:28.424Z,5.60
2023-04-18T18:33:30.741Z,5.90
2023-04-18T18:38:32.751Z,4.80
2023-04-18T18:43:34.938Z,5.20
2023-04-18T18:48:38.716Z,5.10
2023-04-18T18:53:40.746Z,5.40
2023-04-18T18:58:43.499Z,6.60
2023-04-18T19:03:45.531Z,5.00
2023-04-18T19:08:47.559Z,5.10
2023-04-18T19:13:51.820Z,4.50
2023-04-18T19:18:53.911Z,4.40
2023-04-18T19:23:55.915Z,5.00
2023-04-18T19:28:57.934Z,5.40
2023-04-18T19:34:00.473Z,5.60
2023-04-18T19:39:02.580Z,5.10
2023-04-18T19:44:04.604Z,4.70
2023-04-18T19:49:06.601Z,5.10
2023-04-18T19:54:08.874Z,5.40
2023-04-18T19:59:10.789Z,3.40
2023-04-18T20:04:12.928Z,3.50
2023-04-18T20:09:16.395Z,4.70
2023-04-18T20:14:19.487Z,4.40
2023-04-18T20:19:25.376Z,4.30
2023-04-18T20:24:28.034Z,4.50
2023-04-18T20:29:30.192Z,4.30
2023-04-18T20:34:32.260Z,4.00
2023-04-18T20:39:36.897Z,3.70
2023-04-18T20:44:42.510Z,3.60
2023-04-18T20:49:46.733Z,3.50
2023-04-18T20:54:49.438Z,4.20
2023-04-18T20:59:54.260Z,3.60
2023-04-18T21:04:58.765Z,3.20
2023-04-18T21:10:00.747Z,3.50
2023-04-18T21:15:03.478Z,3.00
2023-04-18T21:20:06.471Z,3.60
2023-04-18T21:25:08.938Z,3.70
2023-04-18T21:30:11.206Z,3.30
2023-04-18T21:35:18.650Z,2.80
2023-04-18T21:40:22.143Z,3.10
2023-04-18T21:45:24.680Z,2.80
2023-04-18T21:50:26.620Z,3.40
2023-04-18T21:55:28.518Z,3.10
2023-04-18T22:00:33.755Z,3.20
2023-04-18T22:05:36.618Z,2.20
2023-04-18T22:10:39.199Z,2.70
2023-04-18T22:15:42.065Z,2.60
2023-04-18T22:20:46.381Z,4.10
2023-04-18T22:25:48.922Z,3.90
2023-04-18T22:30:50.999Z,2.70
2023-04-18T22:35:53.751Z,2.60
2023-04-18T22:40:59.540Z,2.20
2023-04-18T22:46:02.275Z,2.50
2023-04-18T22:51:04.576Z,4.00
2023-04-18T22:56:06.697Z,4.00
2023-04-18T23:01:08.672Z,3.30
2023-04-18T23:06:10.594Z,2.00
2023-04-18T23:11:13.158Z,1.80
2023-04-18T23:16:15.310Z,2.30
2023-04-18T23:21:17.672Z,3.10
2023-04-18T23:26:20.331Z,2.90
2023-04-18T23:31:22.393Z,2.40
2023-04-18T23:36:25.581Z,2.80
2023-04-18T23:41:27.531Z,2.40
2023-04-18T23:46:29.445Z,2.90
2023-04-18T23:51:31.863Z,3.30
2023-04-18T23:56:34.423Z,2.30
